Time;durP1;ratioP1;P1;durP2;ratioP2;P2;SDS_P1;SDS_P2;PMS_P1;PMS_P2;Temp;Humidity;BMP_temperature;BMP_pressure;BME280_temperature;BME280_humidity;BME280_pressure;Samples;Min_cycle;Max_cycle;Signal;HPM_P1;HPM_P2
2022/01/11 00:01:00;;;;;;;8.45;4.50;;;;;;;;;;5100778;28;20035;-55
2022/01/11 00:03:25;;;;;;;9.48;4.45;;;;;;;;;;5101410;28;20051;-52
2022/01/11 00:06:01;;;;;;;13.98;5.40;;;;;;;;;;5103997;28;20028;-56
2022/01/11 00:08:31;;;;;;;9.73;5.03;;;;;;;;;;5108985;28;20023;-54
2022/01/11 00:11:05;;;;;;;9.85;4.88;;;;;;;;;;5103081;28;20422;-58
2022/01/11 00:13:41;;;;;;;10.80;4.65;;;;;;;;;;5105711;28;20096;-54
2022/01/11 00:16:09;;;;;;;10.70;4.82;;;;;;;;;;5104561;28;20031;-55
2022/01/11 00:18:35;;;;;;;8.50;4.53;;;;;;;;;;5105127;28;20094;-56
2022/01/11 00:21:01;;;;;;;7.13;3.97;;;;;;;;;;5105003;28;20058;-58
2022/01/11 00:25:54;;;;;;;8.20;4.22;;;;;;;;;;5103463;28;20024;-58
2022/01/11 00:28:22;;;;;;;10.50;4.15;;;;;;;;;;5104949;28;20459;-57
2022/01/11 00:30:49;;;;;;;10.00;4.55;;;;;;;;;;5104385;28;20028;-57
2022/01/11 00:33:22;;;;;;;8.68;4.18;;;;;;;;;;5097720;28;20047;-56
2022/01/11 00:36:00;;;;;;;8.57;4.53;;;;;;;;;;5097478;28;20027;-54
2022/01/11 00:38:34;;;;;;;10.88;4.45;;;;;;;;;;5111968;27;20066;-57
2022/01/11 00:41:03;;;;;;;7.95;4.22;;;;;;;;;;5108328;27;20042;-55
2022/01/11 00:43:30;;;;;;;7.43;3.50;;;;;;;;;;5109460;27;20028;-54
2022/01/11 00:45:57;;;;;;;8.55;4.00;;;;;;;;;;5061926;28;20083;-51
2022/01/11 00:48:22;;;;;;;10.27;3.85;;;;;;;;;;4927911;28;20037;-55
2022/01/11 00:50:49;;;;;;;6.53;3.83;;;;;;;;;;4771365;29;20505;-50
2022/01/11 00:53:15;;;;;;;7.38;3.60;;;;;;;;;;4585689;30;20073;-53
2022/01/11 00:58:20;;;;;;;5.53;3.28;;;;;;;;;;5148078;27;20415;-51
2022/01/11 01:00:46;;;;;;;7.75;3.75;;;;;;;;;;5162755;27;20035;-56
2022/01/11 01:03:12;;;;;;;7.85;3.63;;;;;;;;;;5142405;27;20026;-51
2022/01/11 01:05:38;;;;;;;9.25;3.78;;;;;;;;;;5147181;27;20378;-53
2022/01/11 01:08:05;;;;;;;9.50;3.70;;;;;;;;;;5105673;27;20044;-56
2022/01/11 01:10:35;;;;;;;6.43;3.28;;;;;;;;;;4978783;28;20049;-53
2022/01/11 01:13:04;;;;;;;7.88;3.72;;;;;;;;;;4943946;28;20039;-55
2022/01/11 01:15:30;;;;;;;10.93;3.95;;;;;;;;;;4868029;29;20062;-55
2022/01/11 01:17:55;;;;;;;8.27;3.55;;;;;;;;;;4661142;29;20092;-56
2022/01/11 01:22:16;;;;;;;6.45;3.38;;;;;;;;;;5159376;27;20130;-59
2022/01/11 01:24:42;;;;;;;8.65;4.10;;;;;;;;;;5169504;27;20041;-57
2022/01/11 01:27:07;;;;;;;9.43;3.72;;;;;;;;;;5168484;27;20033;-56
2022/01/11 01:29:33;;;;;;;8.93;4.00;;;;;;;;;;5150791;27;20439;-58
2022/01/11 01:32:00;;;;;;;12.70;4.10;;;;;;;;;;5119321;27;20037;-59
2022/01/11 01:34:25;;;;;;;9.90;4.22;;;;;;;;;;5048863;28;20037;-57
2022/01/11 01:36:51;;;;;;;7.40;3.17;;;;;;;;;;5041222;28;20855;-54
2022/01/11 01:39:17;;;;;;;9.77;3.40;;;;;;;;;;4891166;28;1310099;-58
2022/01/11 01:41:44;;;;;;;8.25;3.75;;;;;;;;;;4694548;29;20042;-58
2022/01/11 01:44:10;;;;;;;10.13;3.28;;;;;;;;;;4621410;30;20047;-59
2022/01/11 01:46:36;;;;;;;10.07;3.90;;;;;;;;;;4489636;30;1092582;-59
2022/01/11 01:49:02;;;;;;;6.93;3.53;;;;;;;;;;4523729;31;20047;-59
2022/01/11 01:51:28;;;;;;;9.07;3.80;;;;;;;;;;4500761;31;20035;-59
2022/01/11 01:53:54;;;;;;;8.55;4.50;;;;;;;;;;4500594;31;20066;-59
2022/01/11 01:56:22;;;;;;;8.60;4.00;;;;;;;;;;4498541;31;20070;-59
2022/01/11 01:58:47;;;;;;;11.13;4.32;;;;;;;;;;4499899;31;20043;-59
2022/01/11 02:01:14;;;;;;;12.35;4.28;;;;;;;;;;4499731;31;20104;-57
2022/01/11 02:03:42;;;;;;;9.35;4.20;;;;;;;;;;4500765;31;20035;-59
2022/01/11 02:06:10;;;;;;;7.63;4.10;;;;;;;;;;4500196;31;20061;-59
2022/01/11 02:08:35;;;;;;;9.85;4.63;;;;;;;;;;4499683;31;21030;-59
2022/01/11 02:11:01;;;;;;;10.35;5.00;;;;;;;;;;4500769;31;20081;-61
2022/01/11 02:13:28;;;;;;;13.95;4.95;;;;;;;;;;4499299;31;20046;-60
2022/01/11 02:15:55;;;;;;;10.00;4.72;;;;;;;;;;4500777;31;20426;-59
2022/01/11 02:18:23;;;;;;;10.70;4.60;;;;;;;;;;4512822;31;20409;-58
2022/01/11 02:20:51;;;;;;;11.45;4.53;;;;;;;;;;4515150;31;20074;-59
2022/01/11 02:23:18;;;;;;;12.15;5.15;;;;;;;;;;4514382;31;20055;-60
2022/01/11 02:25:45;;;;;;;11.98;4.85;;;;;;;;;;4543231;31;20057;-59
2022/01/11 02:28:14;;;;;;;10.52;5.53;;;;;;;;;;4515263;31;20061;-60
2022/01/11 02:30:41;;;;;;;10.65;4.78;;;;;;;;;;4516362;31;20109;-59
2022/01/11 02:33:13;;;;;;;8.55;4.65;;;;;;;;;;4507518;31;20047;-60
2022/01/11 02:35:39;;;;;;;12.82;5.68;;;;;;;;;;4505391;31;20046;-59
2022/01/11 02:38:04;;;;;;;10.38;5.50;;;;;;;;;;4505242;31;20131;-59
2022/01/11 02:40:30;;;;;;;11.80;5.68;;;;;;;;;;4537795;30;20058;-60
2022/01/11 02:42:55;;;;;;;11.55;6.07;;;;;;;;;;4588194;30;20517;-55
2022/01/11 02:45:21;;;;;;;17.90;7.10;;;;;;;;;;4628444;30;20098;-58
2022/01/11 02:47:48;;;;;;;13.68;7.05;;;;;;;;;;4638173;30;20502;-60
2022/01/11 02:50:15;;;;;;;18.27;7.00;;;;;;;;;;4636419;30;20118;-58
2022/01/11 02:52:41;;;;;;;18.67;7.13;;;;;;;;;;4634848;30;20054;-60
2022/01/11 02:55:12;;;;;;;16.48;7.90;;;;;;;;;;4634276;30;20035;-60
2022/01/11 02:57:38;;;;;;;13.40;6.85;;;;;;;;;;4636129;30;20030;-60
2022/01/11 03:00:17;;;;;;;17.83;7.63;;;;;;;;;;4634061;30;20047;-60
2022/01/11 03:02:43;;;;;;;15.50;7.00;;;;;;;;;;4635609;30;20507;-60
2022/01/11 03:05:10;;;;;;;16.35;6.85;;;;;;;;;;4632626;30;20043;-60
2022/01/11 03:07:36;;;;;;;18.25;8.32;;;;;;;;;;4635278;30;20099;-59
2022/01/11 03:10:12;;;;;;;19.63;8.88;;;;;;;;;;4635190;30;20411;-57
2022/01/11 03:12:40;;;;;;;26.95;8.45;;;;;;;;;;4635419;30;20430;-60
2022/01/11 03:15:06;;;;;;;21.52;9.05;;;;;;;;;;4635550;30;20070;-59
2022/01/11 03:17:31;;;;;;;22.20;8.80;;;;;;;;;;4636271;30;20516;-59
2022/01/11 03:19:56;;;;;;;18.70;8.88;;;;;;;;;;4634278;30;20054;-57
2022/01/11 03:22:22;;;;;;;24.02;8.90;;;;;;;;;;4634510;30;20125;-60
2022/01/11 03:24:47;;;;;;;24.00;9.23;;;;;;;;;;4638914;30;20086;-59
2022/01/11 03:27:13;;;;;;;22.20;8.27;;;;;;;;;;4634908;30;20047;-60
2022/01/11 03:29:39;;;;;;;21.83;8.88;;;;;;;;;;4639259;30;20533;-58
2022/01/11 03:32:07;;;;;;;20.35;9.57;;;;;;;;;;4636786;30;20039;-60
2022/01/11 03:34:32;;;;;;;26.65;8.60;;;;;;;;;;4635287;30;20043;-57
2022/01/11 03:36:58;;;;;;;15.80;8.55;;;;;;;;;;4636745;30;20094;-62
2022/01/11 03:39:27;;;;;;;28.55;8.38;;;;;;;;;;4625828;30;20035;-61
2022/01/11 03:41:53;;;;;;;20.80;8.82;;;;;;;;;;4693750;30;20474;-61
2022/01/11 03:44:18;;;;;;;18.98;9.30;;;;;;;;;;4791881;29;20046;-58
2022/01/11 03:46:44;;;;;;;33.58;9.07;;;;;;;;;;4764663;29;20111;-61
2022/01/11 03:49:09;;;;;;;27.67;9.73;;;;;;;;;;4751859;30;20046;-61
2022/01/11 03:51:38;;;;;;;23.48;8.45;;;;;;;;;;4751500;30;20397;-61
2022/01/11 03:54:11;;;;;;;26.50;9.32;;;;;;;;;;4749374;30;20044;-60
2022/01/11 03:56:36;;;;;;;50.97;9.48;;;;;;;;;;4752419;30;20645;-57
2022/01/11 03:59:06;;;;;;;20.30;8.73;;;;;;;;;;4750693;30;20124;-60
2022/01/11 04:01:38;;;;;;;19.52;8.07;;;;;;;;;;4751914;30;20040;-61
2022/01/11 04:04:05;;;;;;;19.77;8.52;;;;;;;;;;4764354;30;20036;-60
2022/01/11 04:06:31;;;;;;;17.02;8.02;;;;;;;;;;4750084;30;20463;-60
2022/01/11 04:08:57;;;;;;;15.32;7.90;;;;;;;;;;4751781;30;20048;-56
2022/01/11 04:11:22;;;;;;;15.77;8.23;;;;;;;;;;4750215;30;20362;-61
2022/01/11 04:13:47;;;;;;;16.98;7.50;;;;;;;;;;4748706;30;20158;-57
2022/01/11 04:16:13;;;;;;;24.02;8.65;;;;;;;;;;4752864;30;20036;-60
2022/01/11 04:18:39;;;;;;;21.17;8.23;;;;;;;;;;4751080;30;20043;-60
2022/01/11 04:21:05;;;;;;;20.13;8.73;;;;;;;;;;4750126;30;20454;-59
2022/01/11 04:23:31;;;;;;;22.15;7.72;;;;;;;;;;4751685;30;20603;-60
2022/01/11 04:25:57;;;;;;;17.92;9.13;;;;;;;;;;4751739;30;20043;-59
2022/01/11 04:28:23;;;;;;;18.35;8.45;;;;;;;;;;4751710;30;20035;-60
2022/01/11 04:30:49;;;;;;;23.95;7.80;;;;;;;;;;4747616;30;20047;-60
2022/01/11 04:33:15;;;;;;;15.55;8.15;;;;;;;;;;4746510;30;20036;-53
2022/01/11 04:35:43;;;;;;;24.65;7.68;;;;;;;;;;4740470;30;20035;-60
2022/01/11 04:38:08;;;;;;;17.30;8.10;;;;;;;;;;4741756;30;20078;-57
2022/01/11 04:40:33;;;;;;;24.13;8.45;;;;;;;;;;4765186;29;20578;-60
2022/01/11 04:42:59;;;;;;;26.90;8.90;;;;;;;;;;4830639;29;20664;-59
2022/01/11 04:45:24;;;;;;;21.83;8.25;;;;;;;;;;4790837;29;20105;-59
2022/01/11 04:47:56;;;;;;;18.45;7.22;;;;;;;;;;4761433;29;20032;-59
2022/01/11 04:50:22;;;;;;;18.83;8.55;;;;;;;;;;4660473;30;20407;-57
2022/01/11 04:52:48;;;;;;;20.38;7.82;;;;;;;;;;4633441;30;20067;-60
2022/01/11 04:57:29;;;;;;;16.73;6.75;;;;;;;;;;5162745;27;20229;-50
2022/01/11 04:59:54;;;;;;;14.43;7.00;;;;;;;;;;5163284;27;20052;-51
2022/01/11 05:02:20;;;;;;;12.80;7.22;;;;;;;;;;5162626;27;20575;-53
2022/01/11 05:04:45;;;;;;;13.90;7.22;;;;;;;;;;5132233;27;20042;-54
2022/01/11 05:07:11;;;;;;;13.68;6.55;;;;;;;;;;5027064;28;20126;-53
2022/01/11 05:09:36;;;;;;;14.48;6.50;;;;;;;;;;4945826;28;20039;-50
2022/01/11 05:12:02;;;;;;;15.50;7.05;;;;;;;;;;4907576;28;20043;-52
2022/01/11 05:14:27;;;;;;;13.75;6.85;;;;;;;;;;4748744;29;20140;-52
2022/01/11 05:16:52;;;;;;;13.35;6.25;;;;;;;;;;4647616;30;20040;-51
2022/01/11 05:21:46;;;;;;;13.88;6.65;;;;;;;;;;5157559;27;20363;-60
2022/01/11 05:24:12;;;;;;;13.13;7.10;;;;;;;;;;5170880;27;20057;-59
2022/01/11 05:26:38;;;;;;;14.10;6.43;;;;;;;;;;5164599;27;20031;-59
2022/01/11 05:29:04;;;;;;;14.00;6.40;;;;;;;;;;5161572;27;20038;-59
2022/01/11 05:31:29;;;;;;;11.60;6.57;;;;;;;;;;5118245;27;20032;-59
2022/01/11 05:33:55;;;;;;;16.00;6.40;;;;;;;;;;5111091;27;20026;-59
2022/01/11 05:36:20;;;;;;;12.30;5.93;;;;;;;;;;5073218;27;20139;-60
2022/01/11 05:38:45;;;;;;;13.65;5.63;;;;;;;;;;4943749;28;20028;-59
2022/01/11 05:41:11;;;;;;;14.55;6.45;;;;;;;;;;4834982;29;20122;-57
2022/01/11 05:46:15;;;;;;;14.45;6.30;;;;;;;;;;5159849;27;20127;-53
2022/01/11 05:48:44;;;;;;;14.50;6.20;;;;;;;;;;5149971;27;20051;-55
2022/01/11 05:51:11;;;;;;;13.43;6.18;;;;;;;;;;5102483;27;20027;-56
2022/01/11 05:53:37;;;;;;;12.65;6.70;;;;;;;;;;5142398;27;20027;-51
2022/01/11 05:56:02;;;;;;;13.65;6.35;;;;;;;;;;5127059;27;20047;-51
2022/01/11 05:58:28;;;;;;;14.55;6.60;;;;;;;;;;5037446;28;20046;-52
2022/01/11 06:00:53;;;;;;;13.93;6.72;;;;;;;;;;4929774;28;20044;-49
2022/01/11 06:03:18;;;;;;;12.13;6.47;;;;;;;;;;4790986;29;20044;-52
2022/01/11 06:05:44;;;;;;;15.00;6.47;;;;;;;;;;4571900;30;20406;-53
2022/01/11 06:10:19;;;;;;;14.20;5.97;;;;;;;;;;5157029;27;20122;-55
2022/01/11 06:12:45;;;;;;;14.38;6.55;;;;;;;;;;5145657;27;20325;-57
2022/01/11 06:15:10;;;;;;;14.25;6.20;;;;;;;;;;5135914;27;20066;-56
2022/01/11 06:17:35;;;;;;;15.73;7.07;;;;;;;;;;5096309;27;20027;-51
2022/01/11 06:20:01;;;;;;;20.40;6.70;;;;;;;;;;5066635;28;20075;-57
2022/01/11 06:22:26;;;;;;;14.75;6.53;;;;;;;;;;5045908;28;20036;-55
2022/01/11 06:24:52;;;;;;;12.63;6.63;;;;;;;;;;5017868;28;20442;-54
2022/01/11 06:27:17;;;;;;;12.98;6.55;;;;;;;;;;4986508;28;20032;-56
2022/01/11 06:29:43;;;;;;;15.43;7.05;;;;;;;;;;4860038;29;20236;-59
2022/01/11 06:34:46;;;;;;;14.68;6.72;;;;;;;;;;5159939;27;20122;-54
2022/01/11 06:37:12;;;;;;;17.85;7.25;;;;;;;;;;5145857;27;20035;-55
2022/01/11 06:39:38;;;;;;;15.73;7.05;;;;;;;;;;5144437;27;20111;-55
2022/01/11 06:42:04;;;;;;;12.07;6.68;;;;;;;;;;5094025;28;20059;-58
2022/01/11 06:44:30;;;;;;;19.10;7.60;;;;;;;;;;5039183;28;20025;-55
2022/01/11 06:46:55;;;;;;;20.10;7.43;;;;;;;;;;4951641;28;20049;-58
2022/01/11 06:49:21;;;;;;;21.33;7.63;;;;;;;;;;4906261;28;20060;-56
2022/01/11 06:51:46;;;;;;;14.38;7.50;;;;;;;;;;4687279;29;1309054;-58
2022/01/11 06:54:12;;;;;;;15.13;7.45;;;;;;;;;;4533094;30;20079;-57
2022/01/11 06:56:39;;;;;;;16.52;7.53;;;;;;;;;;4440184;31;20536;-57
2022/01/11 06:59:05;;;;;;;17.27;7.75;;;;;;;;;;4387543;32;1078629;-57
2022/01/11 07:01:30;;;;;;;15.77;7.28;;;;;;;;;;4413962;32;20052;-55
2022/01/11 07:03:56;;;;;;;25.30;7.88;;;;;;;;;;4435681;32;20508;-57
2022/01/11 07:06:21;;;;;;;17.42;7.68;;;;;;;;;;4406648;32;20417;-57
2022/01/11 07:08:46;;;;;;;16.92;7.65;;;;;;;;;;4413490;32;20060;-57
2022/01/11 07:11:12;;;;;;;14.75;7.38;;;;;;;;;;4408673;32;20049;-54
2022/01/11 07:13:38;;;;;;;22.13;6.97;;;;;;;;;;4408584;32;20045;-54
2022/01/11 07:16:03;;;;;;;28.45;7.55;;;;;;;;;;4407264;32;20041;-57
2022/01/11 07:18:29;;;;;;;18.38;7.88;;;;;;;;;;4421840;32;20053;-57
2022/01/11 07:20:54;;;;;;;14.93;6.90;;;;;;;;;;4421916;32;20120;-58
2022/01/11 07:23:19;;;;;;;23.63;7.03;;;;;;;;;;4421767;32;20056;-53
2022/01/11 07:25:45;;;;;;;34.78;7.32;;;;;;;;;;4422871;32;20070;-56
2022/01/11 07:28:12;;;;;;;20.75;6.72;;;;;;;;;;4445196;32;20187;-55
2022/01/11 07:30:37;;;;;;;16.58;6.82;;;;;;;;;;4447638;32;20068;-55
2022/01/11 07:33:03;;;;;;;19.63;7.63;;;;;;;;;;4424336;32;20509;-53
2022/01/11 07:35:28;;;;;;;16.35;6.53;;;;;;;;;;4449155;32;20532;-53
2022/01/11 07:37:54;;;;;;;16.27;6.80;;;;;;;;;;4423321;32;20585;-57
2022/01/11 07:40:20;;;;;;;17.58;6.35;;;;;;;;;;4423781;32;20088;-54
2022/01/11 07:42:46;;;;;;;12.70;6.22;;;;;;;;;;4424036;32;20514;-55
2022/01/11 07:45:12;;;;;;;12.10;5.82;;;;;;;;;;4416188;32;20045;-55
2022/01/11 07:47:37;;;;;;;11.73;6.03;;;;;;;;;;4414821;32;20041;-57
2022/01/11 07:50:03;;;;;;;9.50;5.63;;;;;;;;;;4409796;32;20096;-55
2022/01/11 07:52:29;;;;;;;11.02;5.78;;;;;;;;;;4434778;31;20430;-56
2022/01/11 07:54:54;;;;;;;15.60;5.82;;;;;;;;;;4558420;31;20113;-57
2022/01/11 07:57:20;;;;;;;14.65;6.63;;;;;;;;;;4608828;30;20074;-54
2022/01/11 07:59:45;;;;;;;13.85;6.57;;;;;;;;;;4626997;30;20035;-57
2022/01/11 08:02:11;;;;;;;16.13;6.82;;;;;;;;;;4613458;30;20091;-52
2022/01/11 08:04:36;;;;;;;13.57;6.45;;;;;;;;;;4614555;31;20035;-57
2022/01/11 08:07:02;;;;;;;11.85;5.72;;;;;;;;;;4610036;31;20054;-57
2022/01/11 08:09:28;;;;;;;12.85;6.07;;;;;;;;;;4612884;30;20210;-57
2022/01/11 08:11:56;;;;;;;15.60;6.88;;;;;;;;;;4613464;31;20067;-52
2022/01/11 08:14:22;;;;;;;10.73;5.43;;;;;;;;;;4624635;30;20051;-56
2022/01/11 08:16:48;;;;;;;10.00;5.07;;;;;;;;;;4613391;31;20048;-56
2022/01/11 08:19:13;;;;;;;11.77;5.50;;;;;;;;;;4610980;31;20058;-55
2022/01/11 08:21:38;;;;;;;11.82;5.70;;;;;;;;;;4612128;31;20044;-56
2022/01/11 08:24:04;;;;;;;23.45;6.47;;;;;;;;;;4612237;31;20039;-57
2022/01/11 08:26:30;;;;;;;11.10;5.47;;;;;;;;;;4613249;31;20053;-54
2022/01/11 08:28:55;;;;;;;10.48;6.03;;;;;;;;;;4611523;31;20035;-54
2022/01/11 08:31:21;;;;;;;13.10;5.60;;;;;;;;;;4611874;31;20040;-55
2022/01/11 08:33:46;;;;;;;9.77;5.13;;;;;;;;;;4611785;31;20324;-56
2022/01/11 08:36:12;;;;;;;8.35;5.03;;;;;;;;;;4624616;30;20114;-54
2022/01/11 08:38:38;;;;;;;10.98;5.28;;;;;;;;;;4612023;31;20039;-56
2022/01/11 08:41:04;;;;;;;9.73;5.07;;;;;;;;;;4610133;31;20044;-57
2022/01/11 08:43:30;;;;;;;9.40;4.75;;;;;;;;;;4613724;31;20053;-57
2022/01/11 08:45:55;;;;;;;9.88;5.07;;;;;;;;;;4611566;31;20054;-57
2022/01/11 08:48:21;;;;;;;9.85;5.68;;;;;;;;;;4611131;31;20035;-56
2022/01/11 08:50:47;;;;;;;9.13;4.90;;;;;;;;;;4612452;30;20036;-55
2022/01/11 08:53:12;;;;;;;8.98;5.28;;;;;;;;;;4670813;30;20518;-54
2022/01/11 08:55:37;;;;;;;9.95;5.53;;;;;;;;;;4775356;29;20063;-55
2022/01/11 08:58:03;;;;;;;8.32;5.03;;;;;;;;;;4817684;29;20488;-54
2022/01/11 09:00:29;;;;;;;10.40;5.30;;;;;;;;;;4833579;29;20108;-56
2022/01/11 09:02:54;;;;;;;13.15;5.28;;;;;;;;;;4873561;29;20063;-53
2022/01/11 09:05:21;;;;;;;9.70;5.07;;;;;;;;;;4873889;29;20040;-53
2022/01/11 09:07:48;;;;;;;13.77;5.25;;;;;;;;;;4874410;29;20052;-54
2022/01/11 09:10:14;;;;;;;9.13;5.38;;;;;;;;;;4873668;29;20167;-53
2022/01/11 09:12:40;;;;;;;11.43;5.05;;;;;;;;;;4874433;29;20498;-56
2022/01/11 09:15:08;;;;;;;9.27;5.07;;;;;;;;;;4891312;29;20057;-53
2022/01/11 09:17:34;;;;;;;10.13;4.70;;;;;;;;;;4873042;29;20418;-58
2022/01/11 09:20:00;;;;;;;12.05;5.65;;;;;;;;;;4873429;29;20077;-58
2022/01/11 09:22:26;;;;;;;8.48;5.25;;;;;;;;;;4872800;29;20052;-57
2022/01/11 09:24:52;;;;;;;8.68;4.82;;;;;;;;;;4873084;29;20066;-56
2022/01/11 09:27:17;;;;;;;9.82;4.85;;;;;;;;;;4872490;29;20267;-55
2022/01/11 09:29:43;;;;;;;9.07;4.88;;;;;;;;;;4873622;29;20071;-52
2022/01/11 09:32:11;;;;;;;12.60;5.82;;;;;;;;;;4872661;29;20108;-57
2022/01/11 09:34:39;;;;;;;11.40;5.20;;;;;;;;;;4874196;29;20459;-57
2022/01/11 09:37:06;;;;;;;9.32;5.63;;;;;;;;;;4872812;29;20021;-56
2022/01/11 09:39:31;;;;;;;12.70;5.28;;;;;;;;;;4873200;29;20431;-57
2022/01/11 09:41:59;;;;;;;11.13;5.20;;;;;;;;;;4872496;29;20029;-56
2022/01/11 09:44:25;;;;;;;9.82;5.60;;;;;;;;;;4871340;29;20057;-56
2022/01/11 09:46:51;;;;;;;11.77;5.78;;;;;;;;;;4871390;29;20092;-55
2022/01/11 09:49:17;;;;;;;8.32;5.10;;;;;;;;;;4873594;29;20046;-56
2022/01/11 09:51:42;;;;;;;12.63;5.88;;;;;;;;;;4874044;29;20039;-57
2022/01/11 09:54:12;;;;;;;16.17;6.30;;;;;;;;;;4828774;29;1083149;-57
2022/01/11 09:56:38;;;;;;;8.88;5.57;;;;;;;;;;4909886;29;20090;-57
2022/01/11 09:59:04;;;;;;;13.98;6.05;;;;;;;;;;4926805;29;20086;-57
2022/01/11 10:01:30;;;;;;;11.30;6.25;;;;;;;;;;4929628;29;20043;-56
2022/01/11 10:04:12;;;;;;;8.73;5.30;;;;;;;;;;4909807;29;20038;-57
2022/01/11 10:06:42;;;;;;;8.77;4.85;;;;;;;;;;4930060;29;20373;-56
2022/01/11 10:09:13;;;;;;;10.23;5.05;;;;;;;;;;4928160;29;20142;-57
2022/01/11 10:11:41;;;;;;;8.23;5.10;;;;;;;;;;4927767;29;20036;-56
2022/01/11 10:14:16;;;;;;;10.95;5.82;;;;;;;;;;4929098;29;20031;-57
2022/01/11 10:16:42;;;;;;;9.35;5.40;;;;;;;;;;4925315;29;20027;-57
2022/01/11 10:19:20;;;;;;;7.78;5.00;;;;;;;;;;4930177;29;20082;-56
2022/01/11 10:21:47;;;;;;;8.80;4.90;;;;;;;;;;4927546;29;20219;-57
2022/01/11 10:24:25;;;;;;;10.93;5.13;;;;;;;;;;4929235;29;20140;-57
2022/01/11 10:26:53;;;;;;;9.45;5.63;;;;;;;;;;4926158;29;20040;-57
2022/01/11 10:29:26;;;;;;;9.85;5.43;;;;;;;;;;4911136;29;20110;-57
2022/01/11 10:31:53;;;;;;;10.75;6.05;;;;;;;;;;4927700;29;20036;-57
2022/01/11 10:34:33;;;;;;;10.68;5.55;;;;;;;;;;4929186;29;20500;-53
2022/01/11 10:37:03;;;;;;;10.95;5.53;;;;;;;;;;4928192;29;20396;-56
2022/01/11 10:39:35;;;;;;;10.63;6.15;;;;;;;;;;4927093;29;20039;-56
2022/01/11 10:42:01;;;;;;;14.48;6.63;;;;;;;;;;4928569;29;20039;-52
2022/01/11 10:44:58;;;;;;;13.38;5.95;;;;;;;;;;4927297;29;20036;-56
2022/01/11 10:47:36;;;;;;;12.07;6.53;;;;;;;;;;4929210;29;20034;-56
2022/01/11 10:50:28;;;;;;;13.55;6.53;;;;;;;;;;4928644;29;20064;-57
2022/01/11 10:52:55;;;;;;;15.43;7.47;;;;;;;;;;4921464;29;20040;-54
2022/01/11 10:55:23;;;;;;;12.50;6.88;;;;;;;;;;4911209;28;20087;-55
2022/01/11 10:57:59;;;;;;;14.02;7.93;;;;;;;;;;4927368;28;20027;-56
2022/01/11 11:00:30;;;;;;;14.43;7.70;;;;;;;;;;4952900;28;20036;-56
2022/01/11 11:02:59;;;;;;;18.58;7.88;;;;;;;;;;4956598;28;20077;-57
2022/01/11 11:05:37;;;;;;;14.25;7.85;;;;;;;;;;4952949;28;20039;-56
2022/01/11 11:08:14;;;;;;;16.08;7.75;;;;;;;;;;4951612;28;20039;-55
2022/01/11 11:10:55;;;;;;;15.68;8.05;;;;;;;;;;4954000;28;20049;-55
2022/01/11 11:13:30;;;;;;;16.25;8.13;;;;;;;;;;4954590;28;20067;-56
2022/01/11 11:16:00;;;;;;;13.93;7.72;;;;;;;;;;4954906;28;20047;-57
2022/01/11 11:18:30;;;;;;;13.90;7.72;;;;;;;;;;4955009;28;20038;-53
2022/01/11 11:21:10;;;;;;;15.48;7.72;;;;;;;;;;4959497;28;20043;-51
2022/01/11 11:23:35;;;;;;;14.10;7.50;;;;;;;;;;4957672;28;20038;-56
2022/01/11 11:26:01;;;;;;;12.30;7.90;;;;;;;;;;4963855;28;20039;-56
2022/01/11 11:28:26;;;;;;;17.95;8.50;;;;;;;;;;4959068;28;20027;-55
2022/01/11 11:30:52;;;;;;;14.27;8.00;;;;;;;;;;4957105;28;20074;-58
2022/01/11 11:33:19;;;;;;;20.23;8.93;;;;;;;;;;4958464;28;20031;-57
2022/01/11 11:35:47;;;;;;;17.52;8.88;;;;;;;;;;4958690;28;20509;-56
2022/01/11 11:38:13;;;;;;;17.20;8.63;;;;;;;;;;4959361;28;20031;-58
2022/01/11 11:40:39;;;;;;;19.15;9.32;;;;;;;;;;4959564;28;20050;-58
2022/01/11 11:43:06;;;;;;;16.00;8.30;;;;;;;;;;4957379;28;20073;-58
2022/01/11 11:45:34;;;;;;;15.80;8.93;;;;;;;;;;4969570;28;20030;-55
2022/01/11 11:48:14;;;;;;;15.60;7.95;;;;;;;;;;4958765;28;20062;-56
2022/01/11 11:51:02;;;;;;;13.30;7.20;;;;;;;;;;4956087;28;20444;-54
2022/01/11 11:53:31;;;;;;;17.42;8.38;;;;;;;;;;4960163;28;20380;-57
2022/01/11 11:56:20;;;;;;;12.82;8.20;;;;;;;;;;5010437;28;20041;-55
2022/01/11 11:58:48;;;;;;;15.95;7.57;;;;;;;;;;5032350;28;20029;-56
2022/01/11 12:01:47;;;;;;;14.82;7.57;;;;;;;;;;5029460;28;20036;-57
2022/01/11 12:04:19;;;;;;;15.57;7.53;;;;;;;;;;5007598;28;20490;-57
2022/01/11 12:06:46;;;;;;;14.07;7.93;;;;;;;;;;5028799;28;20033;-58
2022/01/11 12:09:16;;;;;;;15.48;7.78;;;;;;;;;;5031376;28;20033;-58
2022/01/11 12:11:47;;;;;;;12.75;7.00;;;;;;;;;;5028781;28;20477;-56
2022/01/11 12:14:34;;;;;;;13.40;8.05;;;;;;;;;;5032475;28;20029;-58
2022/01/11 12:17:11;;;;;;;14.55;7.78;;;;;;;;;;5031247;28;20099;-58
2022/01/11 12:19:48;;;;;;;17.67;8.23;;;;;;;;;;5029963;28;20118;-57
2022/01/11 12:22:16;;;;;;;15.65;8.07;;;;;;;;;;5031163;28;20037;-58
2022/01/11 12:24:48;;;;;;;15.35;8.13;;;;;;;;;;5029715;28;20036;-55
2022/01/11 12:27:18;;;;;;;13.18;8.07;;;;;;;;;;5028826;28;20025;-56
2022/01/11 12:30:07;;;;;;;14.45;8.13;;;;;;;;;;5028213;28;20486;-54
2022/01/11 12:33:06;;;;;;;13.13;8.10;;;;;;;;;;5029737;28;20068;-58
2022/01/11 12:35:31;;;;;;;16.95;8.60;;;;;;;;;;5019138;28;20160;-55
2022/01/11 12:38:08;;;;;;;14.90;8.40;;;;;;;;;;5030143;28;20139;-55
2022/01/11 12:40:40;;;;;;;15.10;7.75;;;;;;;;;;5028315;28;20464;-56
2022/01/11 12:43:08;;;;;;;14.95;7.75;;;;;;;;;;5030439;28;20025;-56
2022/01/11 12:45:58;;;;;;;12.98;7.40;;;;;;;;;;5030764;28;20579;-56
2022/01/11 12:48:42;;;;;;;15.60;7.57;;;;;;;;;;5029236;28;20033;-58
2022/01/11 12:51:08;;;;;;;14.38;7.85;;;;;;;;;;5029197;28;20044;-57
2022/01/11 12:53:34;;;;;;;16.42;8.52;;;;;;;;;;5006873;28;20518;-57
2022/01/11 12:55:59;;;;;;;15.68;8.80;;;;;;;;;;4988611;28;20037;-56
2022/01/11 12:58:25;;;;;;;16.85;8.25;;;;;;;;;;4989859;28;20367;-56
2022/01/11 13:00:51;;;;;;;19.00;8.98;;;;;;;;;;4989232;28;20639;-57
2022/01/11 13:03:17;;;;;;;16.90;8.68;;;;;;;;;;4989392;28;20057;-57
2022/01/11 13:05:43;;;;;;;15.75;8.45;;;;;;;;;;4989303;28;20030;-57
2022/01/11 13:08:09;;;;;;;18.50;8.48;;;;;;;;;;4990853;28;20022;-57
2022/01/11 13:10:36;;;;;;;16.00;8.00;;;;;;;;;;4989256;28;20129;-56
2022/01/11 13:13:14;;;;;;;17.75;8.40;;;;;;;;;;4970285;28;20081;-57
2022/01/11 13:15:44;;;;;;;16.60;7.68;;;;;;;;;;4988664;28;20105;-57
2022/01/11 13:18:20;;;;;;;16.52;7.80;;;;;;;;;;4988893;28;20034;-57
2022/01/11 13:20:47;;;;;;;15.10;7.88;;;;;;;;;;4989823;28;20087;-57
2022/01/11 13:23:25;;;;;;;13.27;7.25;;;;;;;;;;4986873;28;20026;-57
2022/01/11 13:26:11;;;;;;;12.98;7.68;;;;;;;;;;4989284;28;20066;-57
2022/01/11 13:28:46;;;;;;;16.58;7.57;;;;;;;;;;4986907;28;20034;-58
2022/01/11 13:31:17;;;;;;;16.40;8.48;;;;;;;;;;4987073;28;20026;-57
2022/01/11 13:33:48;;;;;;;14.45;7.90;;;;;;;;;;4989466;28;20042;-58
2022/01/11 13:36:23;;;;;;;12.88;7.53;;;;;;;;;;4987572;28;20110;-57
2022/01/11 13:38:59;;;;;;;15.73;7.95;;;;;;;;;;4990724;28;20034;-56
2022/01/11 13:41:37;;;;;;;13.82;7.95;;;;;;;;;;4988090;28;20026;-57
2022/01/11 13:44:06;;;;;;;13.00;7.82;;;;;;;;;;4988492;28;20037;-58
2022/01/11 13:46:46;;;;;;;15.55;7.97;;;;;;;;;;4989897;28;20026;-58
2022/01/11 13:49:15;;;;;;;16.08;8.05;;;;;;;;;;4988545;28;20089;-56
2022/01/11 13:51:44;;;;;;;16.23;7.97;;;;;;;;;;4989044;28;20057;-54
2022/01/11 13:54:09;;;;;;;15.55;8.38;;;;;;;;;;5003825;28;20490;-58
2022/01/11 13:56:40;;;;;;;17.30;8.18;;;;;;;;;;5008779;28;20038;-57
2022/01/11 13:59:05;;;;;;;15.13;7.32;;;;;;;;;;5009013;28;20025;-58
2022/01/11 14:01:31;;;;;;;17.15;8.20;;;;;;;;;;5009866;28;20040;-59
2022/01/11 14:04:07;;;;;;;11.88;7.40;;;;;;;;;;5011876;28;20091;-57
2022/01/11 14:06:45;;;;;;;17.42;8.45;;;;;;;;;;4991577;28;20148;-58
2022/01/11 14:09:18;;;;;;;17.38;7.97;;;;;;;;;;5008628;28;20053;-57
2022/01/11 14:12:07;;;;;;;18.35;8.95;;;;;;;;;;5008173;28;20034;-56
2022/01/11 14:14:30;;;;;;;14.50;8.15;;;;;;;;;;5010848;28;20108;-55
2022/01/11 14:16:56;;;;;;;16.40;8.73;;;;;;;;;;5007920;28;20450;-57
2022/01/11 14:19:23;;;;;;;17.38;7.68;;;;;;;;;;5008123;28;20029;-56
2022/01/11 14:21:54;;;;;;;15.30;7.93;;;;;;;;;;5008215;28;20040;-57
2022/01/11 14:24:21;;;;;;;16.35;8.70;;;;;;;;;;5008802;28;20029;-55
2022/01/11 14:26:47;;;;;;;13.18;8.48;;;;;;;;;;5007759;28;20053;-57
2022/01/11 14:29:21;;;;;;;14.95;8.32;;;;;;;;;;4993715;28;20021;-57
2022/01/11 14:32:05;;;;;;;19.08;8.40;;;;;;;;;;5008419;28;20157;-57
2022/01/11 14:34:31;;;;;;;15.95;8.70;;;;;;;;;;4999772;28;20069;-57
2022/01/11 14:37:17;;;;;;;19.80;8.68;;;;;;;;;;4999207;28;20120;-57
2022/01/11 14:39:42;;;;;;;12.75;7.85;;;;;;;;;;4998993;28;20455;-57
2022/01/11 14:42:08;;;;;;;14.80;8.27;;;;;;;;;;4997716;28;20029;-51
2022/01/11 14:44:33;;;;;;;13.50;7.90;;;;;;;;;;5001532;28;20022;-55
2022/01/11 14:47:01;;;;;;;17.52;9.00;;;;;;;;;;5004100;28;20061;-55
2022/01/11 14:49:28;;;;;;;14.40;8.57;;;;;;;;;;4982196;28;20040;-53
2022/01/11 14:52:06;;;;;;;15.13;8.23;;;;;;;;;;4997759;28;20038;-54
2022/01/11 14:54:34;;;;;;;18.75;9.25;;;;;;;;;;4999852;28;20042;-56
2022/01/11 14:57:02;;;;;;;18.77;7.97;;;;;;;;;;5001976;28;20042;-59